createdAt,value
2022-12-18T00:04:35.408Z,34.85
2022-12-18T00:07:23.081Z,37.03
2022-12-18T00:10:10.647Z,35.45
2022-12-18T00:12:58.229Z,36.62
2022-12-18T00:15:45.868Z,35.77
2022-12-18T00:18:33.497Z,35.04
2022-12-18T00:21:21.066Z,35.92
2022-12-18T00:24:08.777Z,35.71
2022-12-18T00:26:56.369Z,36.14
2022-12-18T00:29:43.970Z,34.84
2022-12-18T00:32:31.550Z,35.33
2022-12-18T00:35:19.246Z,34.98
2022-12-18T00:38:06.825Z,34.99
2022-12-18T00:40:54.421Z,35.03
2022-12-18T00:43:42.248Z,35.99
2022-12-18T00:46:29.998Z,35.00
2022-12-18T00:49:17.551Z,35.38
2022-12-18T00:52:07.142Z,34.40
2022-12-18T00:54:54.702Z,35.98
2022-12-18T00:57:42.426Z,35.02
2022-12-18T01:00:30.049Z,35.22
2022-12-18T01:03:17.682Z,36.22
2022-12-18T01:06:05.267Z,36.28
2022-12-18T01:08:52.868Z,35.90
2022-12-18T01:11:40.428Z,36.94
2022-12-18T01:14:28.133Z,36.01
2022-12-18T01:17:15.699Z,35.79
2022-12-18T01:20:03.334Z,35.98
2022-12-18T01:22:50.891Z,36.13
2022-12-18T01:25:38.470Z,35.11
2022-12-18T01:28:26.065Z,34.71
2022-12-18T01:31:13.671Z,35.10
2022-12-18T01:34:01.284Z,35.18
2022-12-18T01:36:48.910Z,34.70
2022-12-18T01:39:36.494Z,34.44
2022-12-18T01:42:24.095Z,33.73
2022-12-18T01:45:11.683Z,33.53
2022-12-18T01:47:59.241Z,32.13
2022-12-18T01:50:48.842Z,33.48
2022-12-18T01:53:36.728Z,32.73
2022-12-18T01:56:24.596Z,32.81
2022-12-18T01:59:12.165Z,32.23
2022-12-18T02:01:59.973Z,32.82
2022-12-18T02:04:49.852Z,32.28
2022-12-18T02:07:37.474Z,32.63
2022-12-18T02:10:25.058Z,33.36
2022-12-18T02:13:12.649Z,32.84
2022-12-18T02:16:00.226Z,34.13
2022-12-18T02:18:47.812Z,35.06
2022-12-18T02:21:35.402Z,33.74
2022-12-18T02:24:23.012Z,34.44
2022-12-18T02:27:10.614Z,34.20
2022-12-18T02:29:59.108Z,34.26
2022-12-18T02:32:46.909Z,34.38
2022-12-18T02:35:34.497Z,34.04
2022-12-18T02:38:22.083Z,33.58
2022-12-18T02:41:09.665Z,34.20
2022-12-18T02:43:57.259Z,32.41
2022-12-18T02:46:45.064Z,32.71
2022-12-18T02:49:32.650Z,33.17
2022-12-18T02:52:20.207Z,33.29
2022-12-18T02:55:07.796Z,33.86
2022-12-18T02:57:55.350Z,32.89
2022-12-18T03:00:42.971Z,32.42
2022-12-18T03:03:30.654Z,33.07
2022-12-18T03:06:18.348Z,32.27
2022-12-18T03:09:05.940Z,33.79
2022-12-18T03:11:53.521Z,32.92
2022-12-18T03:14:41.118Z,32.47
2022-12-18T03:17:28.698Z,33.06
2022-12-18T03:20:16.266Z,32.83
2022-12-18T03:23:03.836Z,32.77
2022-12-18T03:25:51.411Z,33.04
2022-12-18T03:28:38.975Z,31.46
2022-12-18T03:31:26.635Z,31.87
2022-12-18T03:34:14.209Z,32.26
2022-12-18T03:37:01.862Z,31.26
2022-12-18T03:39:49.423Z,30.56
2022-12-18T03:42:36.998Z,31.17
2022-12-18T03:45:24.577Z,32.83
2022-12-18T03:48:12.173Z,32.38
2022-12-18T03:50:59.751Z,31.93
2022-12-18T03:53:47.311Z,31.93
2022-12-18T03:56:34.901Z,31.79
2022-12-18T03:59:22.525Z,31.89
2022-12-18T04:02:10.223Z,31.32
2022-12-18T04:04:57.898Z,31.51
2022-12-18T04:07:45.491Z,32.08
2022-12-18T04:10:33.063Z,33.24
2022-12-18T04:13:40.963Z,33.22
2022-12-18T04:16:44.195Z,33.47
2022-12-18T04:19:31.771Z,33.82
2022-12-18T04:22:19.342Z,33.09
2022-12-18T04:25:08.117Z,35.85
2022-12-18T04:27:55.717Z,36.31
2022-12-18T04:30:43.362Z,36.69
2022-12-18T04:33:31.002Z,34.92
2022-12-18T04:36:18.602Z,34.84
2022-12-18T04:39:06.166Z,35.01
2022-12-18T04:41:53.750Z,33.10
2022-12-18T04:44:41.322Z,32.59
2022-12-18T04:47:28.914Z,32.60
2022-12-18T04:50:16.497Z,31.83
2022-12-18T04:53:04.053Z,30.59
2022-12-18T04:55:51.660Z,32.03
2022-12-18T04:58:39.223Z,31.51
2022-12-18T05:01:32.582Z,32.16
2022-12-18T05:04:22.042Z,31.28
2022-12-18T05:07:09.630Z,32.53
2022-12-18T05:09:57.210Z,32.23
2022-12-18T05:12:44.786Z,32.11
2022-12-18T05:15:32.366Z,32.32
2022-12-18T05:18:19.940Z,33.46
2022-12-18T05:21:07.548Z,34.07
2022-12-18T05:23:55.117Z,34.46
2022-12-18T05:26:42.730Z,33.28
2022-12-18T05:29:30.297Z,34.53
2022-12-18T05:32:17.869Z,35.31
2022-12-18T05:35:05.457Z,34.90
2022-12-18T05:37:53.148Z,35.74
2022-12-18T05:40:42.730Z,35.52
2022-12-18T05:43:30.410Z,35.39
2022-12-18T05:46:20.044Z,35.74
2022-12-18T05:49:07.701Z,36.49
2022-12-18T05:51:55.290Z,36.87
2022-12-18T05:54:42.896Z,37.26
2022-12-18T05:57:30.493Z,36.95
2022-12-18T06:00:18.060Z,35.87
2022-12-18T06:03:05.737Z,36.29
2022-12-18T06:05:53.398Z,35.23
2022-12-18T06:08:46.039Z,35.31
2022-12-18T06:11:34.147Z,34.67
2022-12-18T06:14:21.821Z,36.08
2022-12-18T06:17:09.413Z,34.91
2022-12-18T06:19:57.029Z,34.78
2022-12-18T06:22:44.613Z,37.64
2022-12-18T06:25:32.192Z,38.12
2022-12-18T06:28:19.773Z,39.05
2022-12-18T06:31:08.436Z,40.91
2022-12-18T06:33:56.058Z,41.25
2022-12-18T06:36:43.649Z,42.59
2022-12-18T06:39:31.242Z,41.04
2022-12-18T06:42:18.930Z,39.71
2022-12-18T06:45:06.538Z,41.15
2022-12-18T06:47:54.246Z,41.97
2022-12-18T06:50:41.837Z,42.95
2022-12-18T06:53:29.503Z,41.29
2022-12-18T06:56:17.080Z,40.96
2022-12-18T06:59:04.686Z,39.67
2022-12-18T07:01:52.432Z,38.43
2022-12-18T07:04:40.160Z,37.83
2022-12-18T07:07:27.736Z,36.81
2022-12-18T07:10:15.314Z,38.34
2022-12-18T07:13:02.866Z,37.57
2022-12-18T07:15:50.493Z,38.23
2022-12-18T07:18:38.085Z,38.62
2022-12-18T07:21:25.702Z,37.53
2022-12-18T07:24:13.270Z,35.94
2022-12-18T07:27:00.884Z,36.16
2022-12-18T07:29:48.477Z,35.84
2022-12-18T07:32:36.065Z,35.84
2022-12-18T07:35:25.310Z,33.22
2022-12-18T07:38:13.105Z,32.22
2022-12-18T07:41:00.735Z,33.23
2022-12-18T07:43:48.311Z,31.87
2022-12-18T07:46:37.895Z,31.58
2022-12-18T07:49:25.460Z,31.22
2022-12-18T07:52:13.046Z,31.35
2022-12-18T07:55:00.625Z,30.71
2022-12-18T07:57:51.269Z,30.97
2022-12-18T08:00:40.184Z,30.66
2022-12-18T08:03:27.799Z,30.90
2022-12-18T08:06:15.405Z,30.35
2022-12-18T08:09:03.030Z,29.54
2022-12-18T08:11:50.646Z,28.39
2022-12-18T08:14:38.229Z,28.65
2022-12-18T08:17:25.811Z,28.83
2022-12-18T08:20:13.437Z,29.77
2022-12-18T08:23:01.039Z,30.63
2022-12-18T08:25:48.663Z,30.18
2022-12-18T08:28:36.273Z,30.32
2022-12-18T08:31:23.916Z,30.52
2022-12-18T08:34:12.159Z,30.72
2022-12-18T08:36:59.730Z,30.51
2022-12-18T08:39:47.336Z,29.99
2022-12-18T08:42:34.914Z,31.15
2022-12-18T08:45:22.508Z,30.99
2022-12-18T08:48:10.205Z,30.34
2022-12-18T08:50:57.788Z,29.76
2022-12-18T08:53:45.396Z,29.72
2022-12-18T08:56:32.949Z,29.34
2022-12-18T08:59:20.790Z,30.32
2022-12-18T09:02:08.537Z,29.05
2022-12-18T09:04:57.714Z,28.44
2022-12-18T09:07:45.495Z,28.31
2022-12-18T09:10:35.644Z,30.49
2022-12-18T09:13:26.407Z,32.04
2022-12-18T09:16:13.993Z,31.84
2022-12-18T09:19:01.578Z,31.35
2022-12-18T09:21:49.185Z,30.90
2022-12-18T09:24:36.743Z,31.59
2022-12-18T09:27:24.315Z,31.47
2022-12-18T09:30:11.893Z,31.17
2022-12-18T09:32:59.698Z,31.29
2022-12-18T09:35:47.943Z,30.09
2022-12-18T09:38:35.734Z,30.65
2022-12-18T09:41:23.306Z,30.33
2022-12-18T09:44:10.922Z,31.50
2022-12-18T09:46:58.505Z,31.37
2022-12-18T09:49:46.182Z,29.35
2022-12-18T09:52:35.759Z,29.57
2022-12-18T09:55:23.467Z,29.92
2022-12-18T09:58:11.036Z,31.10
2022-12-18T10:00:58.621Z,30.82
2022-12-18T10:03:46.228Z,29.55
2022-12-18T10:06:33.808Z,29.46
2022-12-18T10:09:21.361Z,28.85
2022-12-18T10:11:56.654Z,29.56
2022-12-18T10:14:24.076Z,29.41
2022-12-18T10:43:19.875Z,28.35
2022-12-18T10:46:06.027Z,28.14
2022-12-18T10:48:53.661Z,27.96
2022-12-18T10:51:41.238Z,28.19
2022-12-18T10:54:28.812Z,27.50
2022-12-18T10:57:16.391Z,26.50
2022-12-18T11:00:03.957Z,26.74
2022-12-18T11:02:51.668Z,28.73
2022-12-18T11:05:39.374Z,32.58
2022-12-18T11:08:26.982Z,33.25
2022-12-18T11:11:14.552Z,34.87
2022-12-18T11:14:02.154Z,35.21
2022-12-18T11:17:23.766Z,34.65
2022-12-18T11:19:57.255Z,34.73
2022-12-18T11:22:44.850Z,35.10
2022-12-18T11:25:34.492Z,35.15
2022-12-18T11:28:23.161Z,35.77
2022-12-18T11:31:10.886Z,35.38
2022-12-18T11:34:27.448Z,35.92
2022-12-18T11:37:06.035Z,36.25
2022-12-18T11:39:53.626Z,36.02
2022-12-18T11:42:41.189Z,36.52
2022-12-18T11:45:28.762Z,37.34
2022-12-18T11:48:16.399Z,36.91
2022-12-18T11:51:03.960Z,36.13
2022-12-18T11:53:51.561Z,36.08
2022-12-18T11:56:39.185Z,34.52
2022-12-18T11:59:26.757Z,33.38
2022-12-18T12:02:14.387Z,34.91
2022-12-18T12:05:02.082Z,35.50
2022-12-18T12:07:49.685Z,35.91
2022-12-18T12:10:37.249Z,37.02
2022-12-18T12:13:24.854Z,36.24
2022-12-18T12:16:12.455Z,37.70
2022-12-18T12:19:00.344Z,37.97
2022-12-18T12:21:47.920Z,39.48
2022-12-18T12:24:35.519Z,39.08
2022-12-18T12:27:23.130Z,40.34
2022-12-18T12:30:10.723Z,41.34
2022-12-18T12:32:58.284Z,38.43
2022-12-18T12:35:45.871Z,38.13
2022-12-18T12:38:33.471Z,39.49
2022-12-18T12:41:21.055Z,39.74
2022-12-18T12:44:08.599Z,38.93
2022-12-18T12:46:56.544Z,38.72
2022-12-18T12:49:44.109Z,38.62
2022-12-18T12:52:33.854Z,39.72
2022-12-18T12:55:21.482Z,40.28
2022-12-18T12:58:10.150Z,38.98
2022-12-18T13:00:59.088Z,38.85
2022-12-18T13:03:47.467Z,39.01
2022-12-18T13:06:36.905Z,38.36
2022-12-18T13:09:26.867Z,37.78
2022-12-18T13:12:14.443Z,37.55
2022-12-18T13:15:02.093Z,38.59
2022-12-18T13:17:49.688Z,39.15
2022-12-18T13:20:37.279Z,38.96
2022-12-18T13:23:24.878Z,37.11
2022-12-18T13:26:12.462Z,36.30
2022-12-18T13:29:00.085Z,35.65
2022-12-18T13:31:48.057Z,36.00
2022-12-18T13:34:36.297Z,34.96
2022-12-18T13:37:24.279Z,34.19
2022-12-18T13:40:11.892Z,33.78
2022-12-18T13:42:59.495Z,31.63
2022-12-18T13:45:47.562Z,31.33
2022-12-18T13:48:35.375Z,30.82
2022-12-18T13:51:23.077Z,31.87
2022-12-18T13:54:10.655Z,37.87
2022-12-18T13:56:58.260Z,37.56
2022-12-18T13:59:45.959Z,41.15
2022-12-18T14:02:34.324Z,39.30
2022-12-18T14:05:22.015Z,39.19
2022-12-18T14:08:09.632Z,38.90
2022-12-18T14:10:57.226Z,38.48
2022-12-18T14:13:44.825Z,37.23
2022-12-18T14:16:32.522Z,37.44
2022-12-18T14:19:20.540Z,39.44
2022-12-18T14:22:08.122Z,38.68
2022-12-18T14:24:55.736Z,42.80
2022-12-18T14:27:43.340Z,45.96
2022-12-18T14:30:30.970Z,42.64
2022-12-18T14:33:18.563Z,41.79
2022-12-18T14:36:06.190Z,42.03
2022-12-18T14:38:53.785Z,41.73
2022-12-18T14:41:41.384Z,40.07
2022-12-18T14:44:39.114Z,40.14
2022-12-18T14:47:36.544Z,39.94
2022-12-18T14:50:24.123Z,38.85
2022-12-18T14:53:11.709Z,38.20
2022-12-18T14:55:59.326Z,38.72
2022-12-18T14:58:47.170Z,37.77
2022-12-18T15:01:34.832Z,47.80
2022-12-18T15:04:22.519Z,37.82
2022-12-18T15:07:10.100Z,38.88
2022-12-18T15:09:57.888Z,37.47
2022-12-18T15:12:45.467Z,37.63
2022-12-18T15:15:33.067Z,36.02
2022-12-18T15:18:20.641Z,37.54
2022-12-18T15:21:08.247Z,40.17
2022-12-18T15:23:55.814Z,39.17
2022-12-18T15:26:43.410Z,39.26
2022-12-18T15:29:30.994Z,40.34
2022-12-18T15:32:18.589Z,39.56
2022-12-18T15:35:06.169Z,39.18
2022-12-18T15:37:53.759Z,38.38
2022-12-18T15:40:41.326Z,39.74
2022-12-18T15:43:29.002Z,38.11
2022-12-18T15:46:16.616Z,38.10
2022-12-18T15:49:04.253Z,34.51
2022-12-18T15:51:51.844Z,36.03
2022-12-18T15:54:39.478Z,37.42
2022-12-18T15:57:27.038Z,38.63
2022-12-18T16:00:14.740Z,34.96
2022-12-18T16:03:02.494Z,34.98
2022-12-18T16:05:50.176Z,33.27
2022-12-18T16:08:37.776Z,32.17
2022-12-18T16:11:27.086Z,32.09
2022-12-18T16:14:14.688Z,32.09
2022-12-18T16:17:02.269Z,31.62
2022-12-18T16:19:49.848Z,31.85
2022-12-18T16:22:37.434Z,31.90
2022-12-18T16:25:25.007Z,30.48
2022-12-18T16:28:12.609Z,29.86
2022-12-18T16:31:00.228Z,30.96
2022-12-18T16:33:47.800Z,30.19
2022-12-18T16:36:35.387Z,30.19
2022-12-18T16:39:22.985Z,30.42
2022-12-18T16:42:11.812Z,30.34
2022-12-18T16:44:59.379Z,29.66
2022-12-18T16:47:46.981Z,28.39
2022-12-18T16:50:34.553Z,29.44
2022-12-18T16:53:22.117Z,29.60
2022-12-18T16:56:09.695Z,30.67
2022-12-18T16:58:57.294Z,29.09
2022-12-18T17:01:44.974Z,27.77
2022-12-18T17:04:32.682Z,25.61
2022-12-18T17:07:20.293Z,25.76
2022-12-18T17:10:07.875Z,26.61
2022-12-18T17:12:55.746Z,25.65
2022-12-18T17:15:43.387Z,25.22
2022-12-18T17:18:31.002Z,25.43
2022-12-18T17:21:18.587Z,24.93
2022-12-18T17:24:06.177Z,21.12
2022-12-18T17:26:53.774Z,16.58
2022-12-18T17:29:47.159Z,14.05
2022-12-18T17:32:36.202Z,12.80
2022-12-18T17:35:23.811Z,11.35
2022-12-18T17:38:11.397Z,11.52
2022-12-18T17:40:58.963Z,29.67
2022-12-18T17:43:46.539Z,31.05
2022-12-18T17:46:34.204Z,28.05
2022-12-18T17:49:21.877Z,21.31
2022-12-18T17:52:09.491Z,18.18
2022-12-18T17:54:57.098Z,17.26
2022-12-18T17:57:44.693Z,15.77
2022-12-18T18:00:32.277Z,14.34
2022-12-18T18:03:20.063Z,14.59
2022-12-18T18:06:07.786Z,15.01
2022-12-18T18:08:56.441Z,16.50
2022-12-18T18:11:44.129Z,15.40
2022-12-18T18:14:31.708Z,14.42
2022-12-18T18:17:19.289Z,14.19
2022-12-18T18:20:06.878Z,14.42
2022-12-18T18:22:54.519Z,14.56
2022-12-18T18:25:42.107Z,15.14
2022-12-18T18:28:29.763Z,15.91
2022-12-18T18:31:17.502Z,15.79
2022-12-18T18:34:05.286Z,15.38
2022-12-18T18:36:52.877Z,14.45
2022-12-18T18:39:40.483Z,13.74
2022-12-18T18:42:28.071Z,13.19
2022-12-18T18:45:15.657Z,13.77
2022-12-18T18:48:03.240Z,13.00
2022-12-18T18:50:50.822Z,12.95
2022-12-18T18:53:40.685Z,12.92
2022-12-18T18:59:36.075Z,14.87
2022-12-18T19:02:23.756Z,14.84
2022-12-18T19:05:11.438Z,14.41
2022-12-18T19:07:59.026Z,14.47
2022-12-18T19:10:46.646Z,14.91
2022-12-18T19:13:34.270Z,15.01
2022-12-18T19:16:21.965Z,15.00
2022-12-18T19:19:11.698Z,14.13
2022-12-18T19:21:59.437Z,15.22
2022-12-18T19:24:47.018Z,14.54
2022-12-18T19:27:34.656Z,14.87
2022-12-18T19:30:22.225Z,16.33
2022-12-18T19:33:34.525Z,16.10
2022-12-18T19:36:17.453Z,15.77
2022-12-18T19:39:05.252Z,15.85
2022-12-18T19:41:53.001Z,15.99
2022-12-18T19:44:41.842Z,15.15
2022-12-18T19:47:29.390Z,14.94
2022-12-18T19:50:16.991Z,14.91
2022-12-18T19:53:04.642Z,15.01
2022-12-18T19:55:54.540Z,15.23
2022-12-18T19:58:42.491Z,15.94
2022-12-18T20:01:30.420Z,14.88
2022-12-18T20:04:18.193Z,15.40
2022-12-18T20:07:05.795Z,15.51
2022-12-18T20:10:02.613Z,15.03
2022-12-18T20:12:53.065Z,14.32
2022-12-18T20:15:45.249Z,13.16
2022-12-18T20:18:33.183Z,13.30
2022-12-18T20:21:20.893Z,13.13
2022-12-18T20:24:08.497Z,12.34
2022-12-18T20:26:56.146Z,13.71
2022-12-18T20:29:43.737Z,13.65
2022-12-18T20:32:36.784Z,12.61
2022-12-18T20:35:24.754Z,12.42
2022-12-18T20:38:13.046Z,12.62
2022-12-18T20:41:01.014Z,12.53
2022-12-18T20:43:48.574Z,11.72
2022-12-18T20:46:36.147Z,11.56
2022-12-18T20:49:23.696Z,11.96
2022-12-18T20:52:11.288Z,11.81
2022-12-18T20:54:58.861Z,10.86
2022-12-18T20:57:48.213Z,11.44
2022-12-18T21:00:35.777Z,10.97
2022-12-18T21:03:23.392Z,11.02
2022-12-18T21:06:11.007Z,10.92
2022-12-18T21:08:58.554Z,10.39
2022-12-18T21:11:46.124Z,10.44
2022-12-18T21:14:35.698Z,10.71
2022-12-18T21:17:23.270Z,10.88
2022-12-18T21:20:10.938Z,10.69
2022-12-18T21:23:13.200Z,10.80
2022-12-18T21:26:04.374Z,10.62
2022-12-18T21:28:51.925Z,10.63
2022-12-18T21:31:39.834Z,10.51
2022-12-18T21:34:27.390Z,9.05
2022-12-18T21:37:14.942Z,9.05
2022-12-18T21:40:02.505Z,8.84
2022-12-18T21:42:50.077Z,7.91
2022-12-18T21:45:37.655Z,7.41
2022-12-18T21:48:25.210Z,7.70
2022-12-18T21:51:12.763Z,7.88
2022-12-18T21:54:00.309Z,8.40
2022-12-18T21:56:49.866Z,7.56
2022-12-18T21:59:37.414Z,7.37
2022-12-18T22:02:25.216Z,6.90
2022-12-18T22:05:12.910Z,6.84
2022-12-18T22:08:00.983Z,6.65
2022-12-18T22:10:48.548Z,6.85
2022-12-18T22:13:36.138Z,6.95
2022-12-18T22:16:23.730Z,6.58
2022-12-18T22:19:11.337Z,7.01
2022-12-18T22:21:58.961Z,7.05
2022-12-18T22:24:46.535Z,7.48
2022-12-18T22:27:34.074Z,9.59
2022-12-18T22:30:21.654Z,14.16
2022-12-18T22:33:09.258Z,15.34
2022-12-18T22:35:56.861Z,15.04
2022-12-18T22:38:44.425Z,15.35
2022-12-18T22:41:32.003Z,16.00
2022-12-18T22:44:20.372Z,16.41
2022-12-18T22:47:07.977Z,15.86
2022-12-18T22:49:55.597Z,14.62
2022-12-18T22:52:43.181Z,13.30
2022-12-18T22:55:32.757Z,11.57
2022-12-18T22:58:20.337Z,11.95
2022-12-18T23:01:07.972Z,18.58
2022-12-18T23:03:55.634Z,17.30
2022-12-18T23:06:43.265Z,12.01
2022-12-18T23:09:30.865Z,9.30
2022-12-18T23:12:18.427Z,9.51
2022-12-18T23:15:06.083Z,9.60
2022-12-18T23:17:53.672Z,9.74
2022-12-18T23:20:41.256Z,10.59
2022-12-18T23:23:29.203Z,9.84
2022-12-18T23:26:16.766Z,9.72
2022-12-18T23:29:04.346Z,10.23
2022-12-18T23:31:51.947Z,11.07
2022-12-18T23:34:39.590Z,11.11
2022-12-18T23:37:57.121Z,10.86
2022-12-18T23:40:34.655Z,10.19
2022-12-18T23:43:22.297Z,10.08
2022-12-18T23:46:09.936Z,10.25
2022-12-18T23:48:57.535Z,9.59
2022-12-18T23:51:45.163Z,9.60
2022-12-18T23:54:33.740Z,9.79
2022-12-18T23:57:21.403Z,9.79
